createdAt,value
2018-09-29T00:01:41.442Z,5.30
2018-09-29T00:06:36.690Z,4.90
2018-09-29T00:11:31.545Z,5.77
2018-09-29T00:16:26.428Z,5.20
2018-09-29T00:21:21.283Z,5.60
2018-09-29T00:26:16.225Z,5.23
2018-09-29T00:31:11.074Z,5.23
2018-09-29T00:36:06.232Z,6.10
2018-09-29T00:41:01.065Z,6.77
2018-09-29T00:45:56.070Z,5.87
2018-09-29T00:50:50.938Z,6.17
2018-09-29T00:55:45.901Z,6.70
2018-09-29T01:00:40.810Z,7.27
2018-09-29T01:05:35.624Z,6.77
2018-09-29T01:10:30.457Z,6.23
2018-09-29T01:15:25.473Z,6.60
2018-09-29T01:20:20.323Z,6.77
2018-09-29T01:25:15.287Z,7.47
2018-09-29T01:30:10.119Z,6.50
2018-09-29T01:35:05.767Z,7.23
2018-09-29T01:40:00.589Z,7.67
2018-09-29T01:44:55.451Z,6.93
2018-09-29T01:49:50.288Z,8.10
2018-09-29T01:54:45.126Z,7.43
2018-09-29T01:59:39.953Z,7.30
2018-09-29T02:04:34.766Z,7.67
2018-09-29T02:09:29.669Z,8.20
2018-09-29T02:14:24.477Z,7.87
2018-09-29T02:19:19.311Z,6.83
2018-09-29T02:24:14.208Z,7.33
2018-09-29T02:29:09.181Z,7.67
2018-09-29T02:34:04.127Z,7.80
2018-09-29T02:38:59.071Z,7.27
2018-09-29T02:43:53.925Z,7.90
2018-09-29T02:48:48.802Z,6.87
2018-09-29T02:53:43.783Z,6.37
2018-09-29T02:58:38.618Z,7.33
2018-09-29T03:03:34.126Z,6.53
2018-09-29T03:08:29.003Z,6.90
2018-09-29T03:13:24.190Z,5.67
2018-09-29T03:18:19.004Z,6.30
2018-09-29T03:23:14.505Z,5.80
2018-09-29T03:28:09.286Z,5.13
2018-09-29T03:33:04.098Z,5.57
2018-09-29T03:37:59.678Z,5.30
2018-09-29T03:42:54.517Z,5.10
2018-09-29T03:47:49.558Z,5.00
2018-09-29T03:52:44.382Z,4.67
2018-09-29T03:57:39.272Z,4.67
2018-09-29T04:02:34.172Z,4.80
2018-09-29T04:07:29.012Z,4.87
2018-09-29T04:12:23.870Z,5.60
2018-09-29T04:17:18.785Z,4.67
2018-09-29T04:22:13.613Z,4.87
2018-09-29T04:27:08.440Z,4.87
2018-09-29T04:32:05.240Z,5.87
2018-09-29T04:37:00.557Z,5.07
2018-09-29T04:41:55.414Z,5.50
2018-09-29T04:46:50.174Z,5.60
2018-09-29T04:51:45.014Z,5.00
2018-09-29T04:56:39.826Z,5.27
2018-09-29T05:01:34.709Z,5.40
2018-09-29T05:06:30.639Z,5.50
2018-09-29T05:11:26.301Z,5.47
2018-09-29T05:16:21.157Z,5.73
2018-09-29T05:21:16.400Z,5.93
2018-09-29T05:26:12.498Z,5.60
2018-09-29T05:31:07.321Z,5.60
2018-09-29T05:36:02.169Z,5.77
2018-09-29T05:40:58.019Z,6.00
2018-09-29T05:45:52.917Z,6.07
2018-09-29T05:50:47.790Z,6.17
2018-09-29T05:55:42.614Z,5.57
2018-09-29T06:00:37.585Z,5.30
2018-09-29T06:05:32.444Z,4.73
2018-09-29T06:10:27.514Z,4.90
2018-09-29T06:15:22.366Z,4.60
2018-09-29T06:20:17.367Z,4.73
2018-09-29T06:25:12.214Z,4.57
2018-09-29T06:30:07.341Z,4.10
2018-09-29T06:35:02.201Z,4.60
2018-09-29T06:39:57.287Z,4.70
2018-09-29T06:44:52.140Z,4.70
2018-09-29T06:49:46.988Z,4.80
2018-09-29T06:54:41.911Z,3.73
2018-09-29T06:59:40.960Z,4.47
2018-09-29T07:04:35.915Z,4.63
2018-09-29T07:09:31.022Z,5.20
2018-09-29T07:14:25.932Z,4.83
2018-09-29T07:19:20.796Z,4.53
2018-09-29T07:24:15.692Z,3.87
2018-09-29T07:29:11.091Z,4.10
2018-09-29T07:34:06.121Z,4.53
2018-09-29T07:39:01.122Z,4.00
2018-09-29T07:43:56.070Z,4.00
2018-09-29T07:48:51.045Z,3.83
2018-09-29T07:53:47.247Z,3.77
2018-09-29T07:58:42.153Z,3.70
2018-09-29T08:03:37.855Z,3.50
2018-09-29T08:08:32.823Z,3.33
2018-09-29T08:13:27.714Z,3.60
2018-09-29T08:18:22.594Z,3.83
2018-09-29T08:23:17.645Z,4.10
2018-09-29T08:28:12.596Z,4.23
2018-09-29T08:33:07.749Z,4.10
2018-09-29T08:38:02.618Z,4.80
2018-09-29T08:42:57.481Z,4.67
2018-09-29T08:47:52.289Z,3.90
2018-09-29T08:52:47.264Z,4.13
2018-09-29T08:57:42.244Z,4.20
2018-09-29T09:02:37.168Z,4.37
2018-09-29T09:07:38.525Z,5.53
2018-09-29T09:12:33.832Z,5.00
2018-09-29T09:17:29.315Z,4.47
2018-09-29T09:22:24.173Z,5.00
2018-09-29T09:27:19.261Z,4.80
2018-09-29T09:32:15.899Z,5.70
2018-09-29T09:37:10.814Z,5.07
2018-09-29T09:42:06.089Z,5.07
2018-09-29T09:47:01.299Z,5.73
2018-09-29T09:51:56.553Z,5.93
2018-09-29T09:56:51.449Z,6.80
2018-09-29T10:01:51.262Z,5.80
2018-09-29T10:06:51.268Z,6.43
2018-09-29T10:11:46.324Z,7.10
2018-09-29T10:16:41.495Z,7.93
2018-09-29T10:21:36.585Z,7.63
2018-09-29T10:26:31.760Z,8.43
2018-09-29T10:31:27.429Z,8.47
2018-09-29T10:36:22.545Z,7.23
2018-09-29T10:41:17.425Z,8.03
2018-09-29T10:46:12.509Z,7.33
2018-09-29T10:51:07.770Z,7.63
2018-09-29T10:56:02.700Z,6.87
2018-09-29T11:00:57.558Z,8.00
2018-09-29T11:05:52.467Z,7.67
2018-09-29T11:10:48.223Z,7.93
2018-09-29T11:15:43.516Z,8.00
2018-09-29T11:20:39.823Z,7.53
2018-09-29T11:25:39.738Z,7.73
2018-09-29T11:30:34.682Z,6.47
2018-09-29T11:35:30.182Z,7.07
2018-09-29T11:40:25.157Z,8.10
2018-09-29T11:45:20.224Z,6.77
2018-09-29T11:50:15.172Z,7.93
2018-09-29T11:55:10.097Z,8.03
2018-09-29T12:00:06.578Z,8.63
2018-09-29T12:05:02.390Z,7.50
2018-09-29T12:09:58.090Z,8.20
2018-09-29T12:14:53.890Z,8.07
2018-09-29T12:19:50.499Z,8.30
2018-09-29T12:24:45.511Z,8.47
2018-09-29T12:29:40.443Z,7.40
2018-09-29T12:34:35.903Z,7.20
2018-09-29T12:39:33.818Z,7.70
2018-09-29T12:44:31.560Z,7.17
2018-09-29T12:49:26.700Z,6.73
2018-09-29T12:54:22.215Z,7.47
2018-09-29T12:59:17.399Z,6.63
2018-09-29T13:04:12.308Z,7.10
2018-09-29T13:09:09.118Z,7.90
2018-09-29T13:14:04.579Z,7.50
2018-09-29T13:18:59.764Z,6.73
2018-09-29T13:23:54.857Z,7.27
2018-09-29T13:28:50.550Z,8.07
2018-09-29T13:33:46.990Z,6.90
2018-09-29T13:38:42.099Z,7.03
2018-09-29T13:43:37.070Z,7.43
2018-09-29T13:48:32.470Z,6.83
2018-09-29T13:53:27.401Z,6.20
2018-09-29T13:58:22.840Z,5.83
2018-09-29T14:03:18.987Z,5.53
2018-09-29T14:08:13.960Z,5.33
2018-09-29T14:13:09.057Z,5.03
2018-09-29T14:18:04.037Z,5.17
2018-09-29T14:23:00.832Z,4.97
2018-09-29T14:27:55.831Z,5.10
2018-09-29T14:32:51.046Z,5.80
2018-09-29T14:37:47.606Z,6.37
2018-09-29T14:42:43.348Z,4.80
2018-09-29T14:47:38.398Z,6.10
2018-09-29T14:52:33.605Z,5.17
2018-09-29T14:57:30.353Z,5.33
2018-09-29T15:02:25.667Z,4.70
2018-09-29T15:07:21.428Z,4.60
2018-09-29T15:12:16.624Z,5.10
2018-09-29T15:17:11.807Z,5.13
2018-09-29T15:22:06.928Z,4.37
2018-09-29T15:27:02.106Z,4.90
2018-09-29T15:31:58.113Z,5.23
2018-09-29T15:36:53.238Z,5.03
2018-09-29T15:41:48.910Z,4.97
2018-09-29T15:46:45.664Z,4.70
2018-09-29T15:51:40.797Z,4.80
2018-09-29T15:56:35.984Z,5.33
2018-09-29T16:01:31.577Z,4.90
2018-09-29T16:06:26.469Z,5.13
2018-09-29T16:11:21.614Z,4.80
2018-09-29T16:16:16.503Z,4.80
2018-09-29T16:21:11.441Z,4.93
2018-09-29T16:26:06.675Z,4.67
2018-09-29T16:31:01.678Z,4.63
2018-09-29T16:35:56.614Z,3.73
2018-09-29T16:40:51.614Z,4.53
2018-09-29T16:45:46.640Z,4.20
2018-09-29T16:50:41.613Z,4.77
2018-09-29T16:55:36.624Z,5.07
2018-09-29T17:00:31.703Z,5.27
2018-09-29T17:05:27.423Z,4.80
2018-09-29T17:10:22.509Z,4.40
2018-09-29T17:15:17.795Z,4.97
2018-09-29T17:20:12.912Z,4.77
2018-09-29T17:25:08.188Z,5.17
2018-09-29T17:30:03.241Z,4.73
2018-09-29T17:34:58.225Z,4.37
2018-09-29T17:39:53.227Z,5.00
2018-09-29T17:44:48.311Z,5.57
2018-09-29T17:49:43.294Z,5.43
2018-09-29T17:54:38.222Z,4.70
2018-09-29T17:59:33.199Z,5.03
2018-09-29T18:04:28.876Z,4.93
2018-09-29T18:09:23.794Z,4.53
2018-09-29T18:14:19.456Z,4.97
2018-09-29T18:19:14.469Z,4.30
2018-09-29T18:24:09.677Z,5.30
2018-09-29T18:29:05.366Z,4.80
2018-09-29T18:34:00.682Z,5.27
2018-09-29T18:38:57.337Z,4.63
2018-09-29T18:43:59.786Z,4.43
2018-09-29T18:48:54.663Z,4.47
2018-09-29T18:53:51.789Z,4.57
2018-09-29T18:58:46.797Z,4.37
2018-09-29T19:03:44.797Z,5.63
2018-09-29T19:08:40.335Z,6.30
2018-09-29T19:13:36.642Z,4.53
2018-09-29T19:18:33.555Z,3.43
2018-09-29T19:23:29.518Z,3.90
2018-09-29T19:28:24.640Z,4.70
2018-09-29T19:33:19.587Z,3.87
2018-09-29T19:38:14.777Z,3.60
2018-09-29T19:43:09.898Z,3.60
2018-09-29T19:48:04.954Z,4.07
2018-09-29T19:52:59.971Z,3.53
2018-09-29T19:57:55.329Z,3.50
2018-09-29T20:02:50.812Z,3.77
2018-09-29T20:07:45.836Z,3.97
2018-09-29T20:12:41.432Z,3.50
2018-09-29T20:17:37.067Z,5.13
2018-09-29T20:22:32.204Z,6.10
2018-09-29T20:27:27.155Z,5.70
2018-09-29T20:32:23.130Z,3.90
2018-09-29T20:37:18.091Z,3.07
2018-09-29T20:42:13.693Z,3.57
2018-09-29T20:47:08.594Z,3.17
2018-09-29T20:52:04.284Z,4.87
2018-09-29T20:56:59.352Z,4.57
2018-09-29T21:01:54.852Z,3.97
2018-09-29T21:06:49.906Z,3.77
2018-09-29T21:11:44.848Z,4.07
2018-09-29T21:16:39.893Z,3.17
2018-09-29T21:21:34.892Z,3.33
2018-09-29T21:26:30.014Z,3.43
2018-09-29T21:31:24.990Z,3.17
2018-09-29T21:36:20.056Z,3.30
2018-09-29T21:41:15.013Z,3.30
2018-09-29T21:46:09.971Z,3.50
2018-09-29T21:51:04.987Z,3.83
2018-09-29T21:55:59.915Z,4.00
2018-09-29T22:00:54.881Z,4.10
2018-09-29T22:05:49.897Z,3.73
2018-09-29T22:10:45.150Z,3.93
2018-09-29T22:15:40.146Z,4.07
2018-09-29T22:20:35.093Z,4.30
2018-09-29T22:25:29.995Z,3.70
2018-09-29T22:30:25.813Z,4.70
2018-09-29T22:35:20.778Z,4.33
2018-09-29T22:40:15.701Z,4.30
2018-09-29T22:45:10.752Z,4.53
2018-09-29T22:50:06.166Z,4.13
2018-09-29T22:55:01.085Z,4.10
2018-09-29T22:59:56.773Z,3.53
2018-09-29T23:04:51.764Z,3.67
2018-09-29T23:09:46.857Z,3.77
2018-09-29T23:14:41.771Z,3.93
2018-09-29T23:19:36.818Z,3.53
2018-09-29T23:24:31.820Z,3.93
2018-09-29T23:29:27.795Z,3.77
2018-09-29T23:34:22.758Z,3.63
2018-09-29T23:39:18.359Z,3.90
2018-09-29T23:44:13.369Z,3.73
2018-09-29T23:49:08.435Z,3.30
2018-09-29T23:54:03.407Z,3.57
2018-09-29T23:58:58.274Z,3.90
